sensor_id;sensor_type;location;lat;lon;timestamp;P1;durP1;ratioP1;P2;durP2;ratioP2
40695;SDS011;40425;51.102;17.208;2023-02-08T06:15:42;24.40;;;11.20;;
40695;SDS011;40425;51.102;17.208;2023-02-08T06:20:43;19.17;;;10.33;;
40695;SDS011;40425;51.102;17.208;2023-02-08T06:25:44;19.50;;;9.00;;
40695;SDS011;40425;51.102;17.208;2023-02-08T06:30:47;18.77;;;9.80;;
40695;SDS011;40425;51.102;17.208;2023-02-08T06:35:52;20.70;;;10.33;;
40695;SDS011;40425;51.102;17.208;2023-02-08T06:40:53;23.33;;;11.13;;
40695;SDS011;40425;51.102;17.208;2023-02-08T06:45:54;25.03;;;12.63;;
40695;SDS011;40425;51.102;17.208;2023-02-08T06:50:54;26.40;;;13.40;;
40695;SDS011;40425;51.102;17.208;2023-02-08T06:55:56;29.27;;;14.43;;
40695;SDS011;40425;51.102;17.208;2023-02-08T07:00:56;38.30;;;17.60;;
40695;SDS011;40425;51.102;17.208;2023-02-08T07:05:57;53.50;;;23.40;;
40695;SDS011;40425;51.102;17.208;2023-02-08T07:10:58;38.13;;;17.17;;
40695;SDS011;40425;51.102;17.208;2023-02-08T07:15:59;42.53;;;17.00;;
40695;SDS011;40425;51.102;17.208;2023-02-08T07:21:00;30.97;;;14.07;;
40695;SDS011;40425;51.102;17.208;2023-02-08T07:26:02;36.07;;;15.00;;
40695;SDS011;40425;51.102;17.208;2023-02-08T07:31:07;36.53;;;16.43;;
40695;SDS011;40425;51.102;17.208;2023-02-08T07:36:10;30.97;;;15.33;;
40695;SDS011;40425;51.102;17.208;2023-02-08T07:41:12;28.37;;;14.93;;
40695;SDS011;40425;51.102;17.208;2023-02-08T07:46:15;34.80;;;16.47;;
40695;SDS011;40425;51.102;17.208;2023-02-08T07:51:17;39.10;;;18.53;;
40695;SDS011;40425;51.102;17.208;2023-02-08T07:56:18;39.87;;;19.63;;
40695;SDS011;40425;51.102;17.208;2023-02-08T08:01:19;46.80;;;22.43;;
40695;SDS011;40425;51.102;17.208;2023-02-08T08:06:21;46.97;;;24.17;;
40695;SDS011;40425;51.102;17.208;2023-02-08T08:11:22;48.03;;;25.20;;
40695;SDS011;40425;51.102;17.208;2023-02-08T08:16:23;53.80;;;23.97;;
40695;SDS011;40425;51.102;17.208;2023-02-08T08:21:24;56.73;;;25.17;;
40695;SDS011;40425;51.102;17.208;2023-02-08T08:26:24;59.17;;;29.30;;
40695;SDS011;40425;51.102;17.208;2023-02-08T08:31:25;54.53;;;27.03;;
40695;SDS011;40425;51.102;17.208;2023-02-08T08:36:26;57.30;;;28.07;;
40695;SDS011;40425;51.102;17.208;2023-02-08T08:41:27;53.33;;;27.23;;
40695;SDS011;40425;51.102;17.208;2023-02-08T08:46:28;50.63;;;25.43;;
40695;SDS011;40425;51.102;17.208;2023-02-08T08:51:29;57.67;;;27.77;;
40695;SDS011;40425;51.102;17.208;2023-02-08T08:56:34;45.87;;;24.53;;
40695;SDS011;40425;51.102;17.208;2023-02-08T09:01:35;51.40;;;25.00;;
40695;SDS011;40425;51.102;17.208;2023-02-08T09:06:36;48.47;;;24.50;;
40695;SDS011;40425;51.102;17.208;2023-02-08T09:11:37;51.77;;;25.63;;
40695;SDS011;40425;51.102;17.208;2023-02-08T09:16:41;53.40;;;25.83;;
40695;SDS011;40425;51.102;17.208;2023-02-08T09:21:47;45.77;;;24.23;;
40695;SDS011;40425;51.102;17.208;2023-02-08T09:26:48;51.47;;;24.93;;
40695;SDS011;40425;51.102;17.208;2023-02-08T09:31:48;47.93;;;24.43;;
40695;SDS011;40425;51.102;17.208;2023-02-08T09:36:49;51.50;;;24.97;;
40695;SDS011;40425;51.102;17.208;2023-02-08T09:42:06;45.90;;;24.17;;
40695;SDS011;40425;51.102;17.208;2023-02-08T09:47:17;48.43;;;23.97;;
40695;SDS011;40425;51.102;17.208;2023-02-08T09:53:02;46.07;;;24.10;;
40695;SDS011;40425;51.102;17.208;2023-02-08T10:03:40;48.80;;;23.87;;
40695;SDS011;40425;51.102;17.208;2023-02-08T10:08:44;40.70;;;22.13;;
40695;SDS011;40425;51.102;17.208;2023-02-08T10:13:55;44.90;;;23.67;;
40695;SDS011;40425;51.102;17.208;2023-02-08T10:19:41;45.63;;;21.57;;
40695;SDS011;40425;51.102;17.208;2023-02-08T10:25:11;43.27;;;22.53;;
40695;SDS011;40425;51.102;17.208;2023-02-08T10:30:19;47.47;;;24.90;;
40695;SDS011;40425;51.102;17.208;2023-02-08T10:35:32;44.47;;;22.63;;
40695;SDS011;40425;51.102;17.208;2023-02-08T10:40:37;43.47;;;21.70;;
40695;SDS011;40425;51.102;17.208;2023-02-08T10:45:45;46.77;;;21.67;;
40695;SDS011;40425;51.102;17.208;2023-02-08T10:50:49;48.73;;;23.00;;
40695;SDS011;40425;51.102;17.208;2023-02-08T10:55:50;40.40;;;20.60;;
40695;SDS011;40425;51.102;17.208;2023-02-08T11:00:51;38.87;;;21.53;;
40695;SDS011;40425;51.102;17.208;2023-02-08T11:05:54;38.50;;;21.13;;
40695;SDS011;40425;51.102;17.208;2023-02-08T11:10:56;48.40;;;24.30;;
40695;SDS011;40425;51.102;17.208;2023-02-08T11:16:00;45.60;;;25.77;;
40695;SDS011;40425;51.102;17.208;2023-02-08T11:21:08;46.80;;;23.30;;
40695;SDS011;40425;51.102;17.208;2023-02-08T11:26:23;49.80;;;25.57;;
40695;SDS011;40425;51.102;17.208;2023-02-08T11:31:32;51.63;;;24.90;;
40695;SDS011;40425;51.102;17.208;2023-02-08T11:36:36;46.67;;;24.20;;
40695;SDS011;40425;51.102;17.208;2023-02-08T11:41:47;39.80;;;21.63;;
40695;SDS011;40425;51.102;17.208;2023-02-08T11:46:51;39.33;;;21.53;;
40695;SDS011;40425;51.102;17.208;2023-02-08T11:51:53;37.77;;;19.27;;
40695;SDS011;40425;51.102;17.208;2023-02-08T11:57:01;40.37;;;19.83;;
40695;SDS011;40425;51.102;17.208;2023-02-08T12:02:21;42.10;;;21.90;;
40695;SDS011;40425;51.102;17.208;2023-02-08T12:18:29;41.97;;;22.90;;
40695;SDS011;40425;51.102;17.208;2023-02-08T12:23:48;47.23;;;25.17;;
40695;SDS011;40425;51.102;17.208;2023-02-08T12:39:32;50.57;;;25.27;;
40695;SDS011;40425;51.102;17.208;2023-02-08T12:45:15;48.40;;;26.43;;
40695;SDS011;40425;51.102;17.208;2023-02-08T12:55:45;48.17;;;22.20;;
40695;SDS011;40425;51.102;17.208;2023-02-08T13:00:47;44.37;;;22.50;;
40695;SDS011;40425;51.102;17.208;2023-02-08T13:05:49;44.03;;;22.10;;
40695;SDS011;40425;51.102;17.208;2023-02-08T13:10:55;41.07;;;22.23;;
40695;SDS011;40425;51.102;17.208;2023-02-08T13:16:00;45.83;;;23.17;;
40695;SDS011;40425;51.102;17.208;2023-02-08T13:21:15;43.17;;;23.10;;
40695;SDS011;40425;51.102;17.208;2023-02-08T13:26:26;45.47;;;23.57;;
40695;SDS011;40425;51.102;17.208;2023-02-08T13:31:31;40.63;;;21.33;;
40695;SDS011;40425;51.102;17.208;2023-02-08T13:36:50;39.53;;;22.23;;
40695;SDS011;40425;51.102;17.208;2023-02-08T13:42:01;41.07;;;21.13;;
40695;SDS011;40425;51.102;17.208;2023-02-08T13:47:04;37.67;;;19.97;;
40695;SDS011;40425;51.102;17.208;2023-02-08T13:52:07;40.10;;;20.53;;
40695;SDS011;40425;51.102;17.208;2023-02-08T14:02:57;39.40;;;21.03;;
40695;SDS011;40425;51.102;17.208;2023-02-08T14:07:59;38.20;;;21.07;;
40695;SDS011;40425;51.102;17.208;2023-02-08T14:13:46;43.33;;;22.17;;
40695;SDS011;40425;51.102;17.208;2023-02-08T14:18:30;47.40;;;22.70;;
40695;SDS011;40425;51.102;17.208;2023-02-08T14:23:31;46.20;;;22.30;;
40695;SDS011;40425;51.102;17.208;2023-02-08T14:28:37;49.13;;;23.93;;
40695;SDS011;40425;51.102;17.208;2023-02-08T14:33:48;43.47;;;23.17;;
40695;SDS011;40425;51.102;17.208;2023-02-08T14:39:03;50.33;;;25.67;;
40695;SDS011;40425;51.102;17.208;2023-02-08T14:45:15;81.53;;;42.60;;
40695;SDS011;40425;51.102;17.208;2023-02-08T14:49:38;52.08;;;27.95;;
40695;SDS011;40425;51.102;17.208;2023-02-08T14:59:49;52.13;;;26.43;;
40695;SDS011;40425;51.102;17.208;2023-02-08T15:04:50;50.57;;;27.00;;
40695;SDS011;40425;51.102;17.208;2023-02-08T15:09:52;49.40;;;25.47;;
40695;SDS011;40425;51.102;17.208;2023-02-08T15:14:54;54.97;;;27.93;;
40695;SDS011;40425;51.102;17.208;2023-02-08T15:19:58;51.37;;;26.17;;
40695;SDS011;40425;51.102;17.208;2023-02-08T15:25:12;86.80;;;40.57;;
40695;SDS011;40425;51.102;17.208;2023-02-08T15:30:28;87.47;;;41.23;;
40695;SDS011;40425;51.102;17.208;2023-02-08T15:35:30;57.30;;;28.53;;
40695;SDS011;40425;51.102;17.208;2023-02-08T15:40:33;54.70;;;27.50;;
40695;SDS011;40425;51.102;17.208;2023-02-08T15:45:34;56.57;;;29.43;;
40695;SDS011;40425;51.102;17.208;2023-02-08T15:50:36;57.27;;;28.83;;
40695;SDS011;40425;51.102;17.208;2023-02-08T15:55:59;50.97;;;24.67;;
40695;SDS011;40425;51.102;17.208;2023-02-08T16:01:01;60.53;;;26.90;;
40695;SDS011;40425;51.102;17.208;2023-02-08T16:06:04;56.13;;;24.93;;
40695;SDS011;40425;51.102;17.208;2023-02-08T16:16:14;62.47;;;29.83;;
40695;SDS011;40425;51.102;17.208;2023-02-08T16:21:20;67.13;;;34.67;;
40695;SDS011;40425;51.102;17.208;2023-02-08T16:31:28;61.13;;;29.30;;
40695;SDS011;40425;51.102;17.208;2023-02-08T16:36:40;77.53;;;33.97;;
40695;SDS011;40425;51.102;17.208;2023-02-08T16:46:55;98.40;;;45.67;;
40695;SDS011;40425;51.102;17.208;2023-02-08T16:51:58;112.93;;;52.17;;
40695;SDS011;40425;51.102;17.208;2023-02-08T16:56:59;144.20;;;58.43;;
40695;SDS011;40425;51.102;17.208;2023-02-08T17:02:00;160.83;;;66.33;;
40695;SDS011;40425;51.102;17.208;2023-02-08T17:07:01;164.20;;;67.83;;
40695;SDS011;40425;51.102;17.208;2023-02-08T17:12:07;160.67;;;70.43;;
40695;SDS011;40425;51.102;17.208;2023-02-08T17:17:10;129.60;;;57.73;;
40695;SDS011;40425;51.102;17.208;2023-02-08T17:22:11;113.13;;;51.60;;
40695;SDS011;40425;51.102;17.208;2023-02-08T17:27:12;99.47;;;47.60;;
40695;SDS011;40425;51.102;17.208;2023-02-08T17:32:13;93.37;;;46.37;;
40695;SDS011;40425;51.102;17.208;2023-02-08T17:37:14;111.50;;;52.00;;
40695;SDS011;40425;51.102;17.208;2023-02-08T17:42:15;101.50;;;48.87;;
40695;SDS011;40425;51.102;17.208;2023-02-08T17:47:16;101.73;;;48.93;;
40695;SDS011;40425;51.102;17.208;2023-02-08T17:52:17;139.47;;;61.73;;
40695;SDS011;40425;51.102;17.208;2023-02-08T17:57:19;200.83;;;88.67;;
40695;SDS011;40425;51.102;17.208;2023-02-08T18:02:22;148.43;;;64.77;;
40695;SDS011;40425;51.102;17.208;2023-02-08T18:07:23;131.33;;;60.00;;
40695;SDS011;40425;51.102;17.208;2023-02-08T18:12:24;124.23;;;57.13;;
40695;SDS011;40425;51.102;17.208;2023-02-08T18:17:25;123.43;;;53.83;;
40695;SDS011;40425;51.102;17.208;2023-02-08T18:22:26;110.60;;;51.47;;
40695;SDS011;40425;51.102;17.208;2023-02-08T18:27:27;112.87;;;51.20;;
40695;SDS011;40425;51.102;17.208;2023-02-08T18:32:28;146.17;;;66.37;;
40695;SDS011;40425;51.102;17.208;2023-02-08T18:37:30;158.97;;;65.93;;
40695;SDS011;40425;51.102;17.208;2023-02-08T18:42:33;133.97;;;60.43;;
40695;SDS011;40425;51.102;17.208;2023-02-08T18:47:35;129.33;;;57.23;;
40695;SDS011;40425;51.102;17.208;2023-02-08T18:52:38;134.37;;;59.63;;
40695;SDS011;40425;51.102;17.208;2023-02-08T18:57:39;127.90;;;59.07;;
40695;SDS011;40425;51.102;17.208;2023-02-08T19:02:43;170.80;;;74.63;;
40695;SDS011;40425;51.102;17.208;2023-02-08T19:07:45;147.07;;;63.63;;
40695;SDS011;40425;51.102;17.208;2023-02-08T19:12:48;150.87;;;67.97;;
40695;SDS011;40425;51.102;17.208;2023-02-08T19:22:50;152.83;;;68.83;;
40695;SDS011;40425;51.102;17.208;2023-02-08T19:27:52;142.50;;;65.70;;
40695;SDS011;40425;51.102;17.208;2023-02-08T19:32:52;136.60;;;61.47;;
40695;SDS011;40425;51.102;17.208;2023-02-08T19:37:53;129.80;;;57.23;;
40695;SDS011;40425;51.102;17.208;2023-02-08T19:42:54;123.53;;;54.00;;
40695;SDS011;40425;51.102;17.208;2023-02-08T19:47:55;126.47;;;52.77;;
40695;SDS011;40425;51.102;17.208;2023-02-08T19:52:56;110.33;;;47.87;;
40695;SDS011;40425;51.102;17.208;2023-02-08T19:57:57;111.03;;;50.87;;
40695;SDS011;40425;51.102;17.208;2023-02-08T20:02:57;110.60;;;50.57;;
40695;SDS011;40425;51.102;17.208;2023-02-08T20:07:59;124.50;;;57.50;;
40695;SDS011;40425;51.102;17.208;2023-02-08T20:13:00;121.80;;;54.53;;
40695;SDS011;40425;51.102;17.208;2023-02-08T20:18:01;118.50;;;53.00;;
40695;SDS011;40425;51.102;17.208;2023-02-08T20:23:03;127.27;;;56.03;;
40695;SDS011;40425;51.102;17.208;2023-02-08T20:28:04;131.30;;;53.27;;
40695;SDS011;40425;51.102;17.208;2023-02-08T20:33:05;117.10;;;53.67;;
40695;SDS011;40425;51.102;17.208;2023-02-08T20:38:06;118.87;;;49.73;;
40695;SDS011;40425;51.102;17.208;2023-02-08T20:43:07;119.23;;;54.30;;
40695;SDS011;40425;51.102;17.208;2023-02-08T20:48:08;117.10;;;54.23;;
40695;SDS011;40425;51.102;17.208;2023-02-08T20:53:09;118.93;;;55.93;;
40695;SDS011;40425;51.102;17.208;2023-02-08T20:58:10;132.33;;;57.60;;
40695;SDS011;40425;51.102;17.208;2023-02-08T21:03:12;128.83;;;56.00;;
40695;SDS011;40425;51.102;17.208;2023-02-08T21:08:13;123.70;;;58.43;;
40695;SDS011;40425;51.102;17.208;2023-02-08T21:13:14;124.70;;;54.67;;
40695;SDS011;40425;51.102;17.208;2023-02-08T21:18:15;127.80;;;55.13;;
40695;SDS011;40425;51.102;17.208;2023-02-08T21:23:16;119.63;;;52.20;;
40695;SDS011;40425;51.102;17.208;2023-02-08T21:28:19;114.70;;;52.13;;
40695;SDS011;40425;51.102;17.208;2023-02-08T21:33:19;115.67;;;53.47;;
40695;SDS011;40425;51.102;17.208;2023-02-08T21:38:20;123.93;;;54.10;;
40695;SDS011;40425;51.102;17.208;2023-02-08T21:43:21;118.03;;;49.67;;
40695;SDS011;40425;51.102;17.208;2023-02-08T21:48:22;121.50;;;50.70;;
40695;SDS011;40425;51.102;17.208;2023-02-08T21:53:23;109.20;;;50.30;;
40695;SDS011;40425;51.102;17.208;2023-02-08T21:58:43;120.73;;;54.27;;
40695;SDS011;40425;51.102;17.208;2023-02-08T22:03:43;131.03;;;55.77;;
40695;SDS011;40425;51.102;17.208;2023-02-08T22:08:44;122.70;;;55.47;;
40695;SDS011;40425;51.102;17.208;2023-02-08T22:13:45;121.90;;;54.60;;
40695;SDS011;40425;51.102;17.208;2023-02-08T22:18:46;126.80;;;52.60;;
40695;SDS011;40425;51.102;17.208;2023-02-08T22:23:47;131.97;;;55.70;;
40695;SDS011;40425;51.102;17.208;2023-02-08T22:28:48;124.17;;;53.23;;
40695;SDS011;40425;51.102;17.208;2023-02-08T22:33:50;125.80;;;54.33;;
40695;SDS011;40425;51.102;17.208;2023-02-08T22:38:52;115.17;;;52.13;;
40695;SDS011;40425;51.102;17.208;2023-02-08T22:43:53;130.40;;;54.27;;
40695;SDS011;40425;51.102;17.208;2023-02-08T22:48:54;136.47;;;57.93;;
40695;SDS011;40425;51.102;17.208;2023-02-08T22:53:55;135.57;;;58.37;;
40695;SDS011;40425;51.102;17.208;2023-02-08T22:58:57;125.70;;;58.43;;
40695;SDS011;40425;51.102;17.208;2023-02-08T23:03:59;138.70;;;59.93;;
40695;SDS011;40425;51.102;17.208;2023-02-08T23:09:00;162.93;;;71.67;;
40695;SDS011;40425;51.102;17.208;2023-02-08T23:14:02;159.57;;;67.83;;
40695;SDS011;40425;51.102;17.208;2023-02-08T23:19:04;155.30;;;67.43;;
40695;SDS011;40425;51.102;17.208;2023-02-08T23:24:05;163.10;;;72.93;;
40695;SDS011;40425;51.102;17.208;2023-02-08T23:29:06;159.17;;;69.90;;
40695;SDS011;40425;51.102;17.208;2023-02-08T23:34:07;155.67;;;66.37;;
40695;SDS011;40425;51.102;17.208;2023-02-08T23:39:10;157.60;;;69.13;;
40695;SDS011;40425;51.102;17.208;2023-02-08T23:44:11;142.00;;;61.50;;
40695;SDS011;40425;51.102;17.208;2023-02-08T23:49:12;134.67;;;56.63;;
40695;SDS011;40425;51.102;17.208;2023-02-08T23:54:13;138.77;;;57.40;;
40695;SDS011;40425;51.102;17.208;2023-02-08T23:59:14;133.77;;;54.67;;
